sensor_id;sensor_type;location;lat;lon;timestamp;pressure;altitude;pressure_sealevel;temperature;humidity
55546;BME280;44768;50.298;127.520;2022-07-22T00:01:17;99401.81;;;34.79;35.89
55546;BME280;44768;50.298;127.520;2022-07-22T00:06:19;99394.31;;;34.45;38.22
55546;BME280;44768;50.298;127.520;2022-07-22T00:11:22;99399.09;;;33.80;38.28
55546;BME280;44768;50.298;127.520;2022-07-22T00:16:23;99393.88;;;33.48;39.25
55546;BME280;44768;50.298;127.520;2022-07-22T00:21:25;99388.22;;;33.89;38.52
55546;BME280;44768;50.298;127.520;2022-07-22T00:26:27;99406.81;;;34.07;38.02
55546;BME280;44768;50.298;127.520;2022-07-22T00:31:28;99389.84;;;33.87;39.32
55546;BME280;44768;50.298;127.520;2022-07-22T00:36:32;99401.88;;;33.50;39.68
55546;BME280;44768;50.298;127.520;2022-07-22T00:41:34;99386.81;;;33.37;39.43
55546;BME280;44768;50.298;127.520;2022-07-22T00:46:36;99390.88;;;33.28;39.34
55546;BME280;44768;50.298;127.520;2022-07-22T00:51:39;99395.53;;;33.42;39.73
55546;BME280;44768;50.298;127.520;2022-07-22T00:56:40;99391.94;;;32.97;39.48
55546;BME280;44768;50.298;127.520;2022-07-22T01:01:43;99403.47;;;32.47;40.54
55546;BME280;44768;50.298;127.520;2022-07-22T01:06:45;99378.91;;;32.10;41.35
55546;BME280;44768;50.298;127.520;2022-07-22T01:11:47;99387.44;;;31.64;40.94
55546;BME280;44768;50.298;127.520;2022-07-22T01:16:49;99389.47;;;31.45;42.52
55546;BME280;44768;50.298;127.520;2022-07-22T01:21:51;99375.16;;;31.22;42.99
55546;BME280;44768;50.298;127.520;2022-07-22T01:26:53;99372.78;;;31.17;42.75
55546;BME280;44768;50.298;127.520;2022-07-22T01:31:54;99368.81;;;31.32;41.76
55546;BME280;44768;50.298;127.520;2022-07-22T01:36:56;99371.56;;;31.39;41.85
55546;BME280;44768;50.298;127.520;2022-07-22T01:41:58;99371.09;;;31.80;41.45
55546;BME280;44768;50.298;127.520;2022-07-22T01:47:00;99370.41;;;31.37;40.68
55546;BME280;44768;50.298;127.520;2022-07-22T01:52:03;99385.50;;;31.46;41.71
55546;BME280;44768;50.298;127.520;2022-07-22T01:57:06;99368.81;;;31.32;42.40
55546;BME280;44768;50.298;127.520;2022-07-22T02:02:08;99360.41;;;31.25;40.95
55546;BME280;44768;50.298;127.520;2022-07-22T02:07:09;99364.44;;;30.96;40.56
55546;BME280;44768;50.298;127.520;2022-07-22T02:12:11;99346.13;;;31.12;41.13
55546;BME280;44768;50.298;127.520;2022-07-22T02:17:13;99342.47;;;31.47;40.09
55546;BME280;44768;50.298;127.520;2022-07-22T02:22:15;99338.97;;;32.20;40.15
55546;BME280;44768;50.298;127.520;2022-07-22T02:27:17;99336.34;;;31.88;39.71
55546;BME280;44768;50.298;127.520;2022-07-22T02:32:19;99332.38;;;32.55;39.13
55546;BME280;44768;50.298;127.520;2022-07-22T02:37:21;99317.78;;;32.82;39.48
55546;BME280;44768;50.298;127.520;2022-07-22T02:42:23;99292.28;;;33.55;38.50
55546;BME280;44768;50.298;127.520;2022-07-22T02:47:24;99305.44;;;33.58;37.48
55546;BME280;44768;50.298;127.520;2022-07-22T02:52:26;99291.81;;;32.88;38.68
55546;BME280;44768;50.298;127.520;2022-07-22T02:57:28;99301.16;;;32.67;37.71
55546;BME280;44768;50.298;127.520;2022-07-22T03:02:29;99305.44;;;32.24;40.05
55546;BME280;44768;50.298;127.520;2022-07-22T03:07:31;99299.91;;;32.17;39.89
55546;BME280;44768;50.298;127.520;2022-07-22T03:12:33;99283.16;;;32.17;38.81
55546;BME280;44768;50.298;127.520;2022-07-22T03:17:36;99272.84;;;32.06;39.61
55546;BME280;44768;50.298;127.520;2022-07-22T03:22:38;99265.03;;;31.73;39.17
55546;BME280;44768;50.298;127.520;2022-07-22T03:27:40;99276.34;;;31.44;39.64
55546;BME280;44768;50.298;127.520;2022-07-22T03:32:41;99266.09;;;31.06;37.87
55546;BME280;44768;50.298;127.520;2022-07-22T03:37:47;99268.88;;;31.06;39.97
55546;BME280;44768;50.298;127.520;2022-07-22T03:42:49;99262.06;;;31.17;39.37
55546;BME280;44768;50.298;127.520;2022-07-22T03:47:51;99260.03;;;31.39;39.31
55546;BME280;44768;50.298;127.520;2022-07-22T03:52:55;99234.44;;;31.59;38.91
55546;BME280;44768;50.298;127.520;2022-07-22T03:57:57;99241.75;;;32.08;36.63
55546;BME280;44768;50.298;127.520;2022-07-22T04:02:58;99238.13;;;32.11;37.09
55546;BME280;44768;50.298;127.520;2022-07-22T04:08:01;99226.50;;;32.20;35.84
55546;BME280;44768;50.298;127.520;2022-07-22T04:13:03;99222.56;;;32.13;38.34
55546;BME280;44768;50.298;127.520;2022-07-22T04:18:05;99235.44;;;32.52;36.35
55546;BME280;44768;50.298;127.520;2022-07-22T04:23:06;99203.41;;;32.12;37.49
55546;BME280;44768;50.298;127.520;2022-07-22T04:28:08;99224.19;;;32.07;37.08
55546;BME280;44768;50.298;127.520;2022-07-22T04:33:10;99216.34;;;31.92;37.55
55546;BME280;44768;50.298;127.520;2022-07-22T04:38:11;99219.38;;;32.11;36.39
55546;BME280;44768;50.298;127.520;2022-07-22T04:43:13;99227.53;;;31.88;37.24
55546;BME280;44768;50.298;127.520;2022-07-22T04:48:16;99217.31;;;31.53;37.89
55546;BME280;44768;50.298;127.520;2022-07-22T04:53:18;99212.63;;;31.39;37.59
55546;BME280;44768;50.298;127.520;2022-07-22T04:58:20;99206.47;;;31.73;36.72
55546;BME280;44768;50.298;127.520;2022-07-22T05:03:22;99208.44;;;31.83;36.94
55546;BME280;44768;50.298;127.520;2022-07-22T05:08:25;99216.31;;;31.99;36.31
55546;BME280;44768;50.298;127.520;2022-07-22T05:13:27;99197.50;;;32.06;36.16
55546;BME280;44768;50.298;127.520;2022-07-22T05:18:28;99214.84;;;31.80;36.67
55546;BME280;44768;50.298;127.520;2022-07-22T05:23:30;99224.88;;;31.60;37.10
55546;BME280;44768;50.298;127.520;2022-07-22T05:28:32;99200.53;;;31.64;36.52
55546;BME280;44768;50.298;127.520;2022-07-22T05:33:34;99193.28;;;31.84;36.42
55546;BME280;44768;50.298;127.520;2022-07-22T05:38:35;99198.28;;;32.07;35.18
55546;BME280;44768;50.298;127.520;2022-07-22T05:43:37;99191.91;;;32.06;36.89
55546;BME280;44768;50.298;127.520;2022-07-22T05:48:39;99195.31;;;32.32;34.80
55546;BME280;44768;50.298;127.520;2022-07-22T05:53:42;99187.06;;;32.62;36.11
55546;BME280;44768;50.298;127.520;2022-07-22T05:58:44;99189.69;;;32.35;38.67
55546;BME280;44768;50.298;127.520;2022-07-22T06:03:45;99201.63;;;32.39;39.52
55546;BME280;44768;50.298;127.520;2022-07-22T06:08:47;99197.19;;;31.97;40.51
55546;BME280;44768;50.298;127.520;2022-07-22T06:13:48;99207.00;;;31.54;40.22
55546;BME280;44768;50.298;127.520;2022-07-22T06:18:50;99202.31;;;31.29;41.12
55546;BME280;44768;50.298;127.520;2022-07-22T06:23:52;99186.41;;;31.26;41.02
55546;BME280;44768;50.298;127.520;2022-07-22T06:28:57;99185.63;;;31.18;41.23
55546;BME280;44768;50.298;127.520;2022-07-22T06:33:59;99193.13;;;31.39;40.69
55546;BME280;44768;50.298;127.520;2022-07-22T06:39:00;99197.75;;;31.64;40.50
55546;BME280;44768;50.298;127.520;2022-07-22T06:44:03;99185.72;;;31.81;40.31
55546;BME280;44768;50.298;127.520;2022-07-22T06:49:09;99192.63;;;31.55;40.45
55546;BME280;44768;50.298;127.520;2022-07-22T06:54:11;99185.69;;;31.01;41.59
55546;BME280;44768;50.298;127.520;2022-07-22T06:59:12;99213.56;;;30.86;42.01
55546;BME280;44768;50.298;127.520;2022-07-22T07:04:14;99201.28;;;30.73;42.14
55546;BME280;44768;50.298;127.520;2022-07-22T07:09:16;99188.16;;;30.56;42.04
55546;BME280;44768;50.298;127.520;2022-07-22T07:14:17;99187.78;;;30.54;42.11
55546;BME280;44768;50.298;127.520;2022-07-22T07:19:19;99186.59;;;30.34;42.22
55546;BME280;44768;50.298;127.520;2022-07-22T07:24:21;99194.94;;;30.12;42.70
55546;BME280;44768;50.298;127.520;2022-07-22T07:29:23;99195.72;;;30.02;42.46
55546;BME280;44768;50.298;127.520;2022-07-22T07:34:24;99181.81;;;30.02;42.34
55546;BME280;44768;50.298;127.520;2022-07-22T07:39:26;99207.28;;;30.25;42.35
55546;BME280;44768;50.298;127.520;2022-07-22T07:44:28;99193.75;;;30.20;42.79
55546;BME280;44768;50.298;127.520;2022-07-22T07:49:30;99196.94;;;30.37;42.97
55546;BME280;44768;50.298;127.520;2022-07-22T07:54:31;99183.41;;;30.39;42.80
55546;BME280;44768;50.298;127.520;2022-07-22T07:59:33;99178.66;;;30.28;42.46
55546;BME280;44768;50.298;127.520;2022-07-22T08:04:36;99174.66;;;30.37;43.00
55546;BME280;44768;50.298;127.520;2022-07-22T08:09:37;99170.72;;;30.23;43.64
55546;BME280;44768;50.298;127.520;2022-07-22T08:14:39;99203.31;;;30.48;43.64
55546;BME280;44768;50.298;127.520;2022-07-22T08:19:41;99193.72;;;30.56;43.89
55546;BME280;44768;50.298;127.520;2022-07-22T08:24:42;99200.06;;;30.81;43.99
55546;BME280;44768;50.298;127.520;2022-07-22T08:29:45;99196.50;;;30.70;44.35
55546;BME280;44768;50.298;127.520;2022-07-22T08:34:47;99192.56;;;30.39;44.26
55546;BME280;44768;50.298;127.520;2022-07-22T08:39:48;99177.81;;;29.89;44.82
55546;BME280;44768;50.298;127.520;2022-07-22T08:44:52;99204.84;;;29.85;45.31
55546;BME280;44768;50.298;127.520;2022-07-22T08:49:54;99171.41;;;29.60;45.26
55546;BME280;44768;50.298;127.520;2022-07-22T08:54:56;99183.28;;;29.53;45.16
55546;BME280;44768;50.298;127.520;2022-07-22T08:59:59;99200.44;;;29.73;44.88
55546;BME280;44768;50.298;127.520;2022-07-22T09:05:04;99195.31;;;29.82;44.47
55546;BME280;44768;50.298;127.520;2022-07-22T09:10:08;99188.94;;;29.89;43.59
55546;BME280;44768;50.298;127.520;2022-07-22T09:15:12;99202.06;;;29.99;43.29
55546;BME280;44768;50.298;127.520;2022-07-22T09:20:17;99193.69;;;29.63;42.81
55546;BME280;44768;50.298;127.520;2022-07-22T09:25:31;99184.94;;;29.72;42.78
55546;BME280;44768;50.298;127.520;2022-07-22T09:30:36;99202.44;;;29.80;43.02
55546;BME280;44768;50.298;127.520;2022-07-22T09:35:38;99202.47;;;30.05;41.93
55546;BME280;44768;50.298;127.520;2022-07-22T09:40:47;99205.66;;;30.07;41.62
55546;BME280;44768;50.298;127.520;2022-07-22T09:50:58;99184.22;;;30.36;41.19
55546;BME280;44768;50.298;127.520;2022-07-22T09:56:02;99207.28;;;30.33;42.73
55546;BME280;44768;50.298;127.520;2022-07-22T10:01:05;99233.06;;;30.01;43.22
55546;BME280;44768;50.298;127.520;2022-07-22T10:06:07;99206.78;;;29.66;42.82
55546;BME280;44768;50.298;127.520;2022-07-22T10:17:52;99229.50;;;30.04;42.38
55546;BME280;44768;50.298;127.520;2022-07-22T10:23:07;99225.84;;;29.64;43.10
55546;BME280;44768;50.298;127.520;2022-07-22T10:28:29;99216.63;;;29.39;43.63
55546;BME280;44768;50.298;127.520;2022-07-22T10:33:32;99231.63;;;29.24;43.99
55546;BME280;44768;50.298;127.520;2022-07-22T10:38:34;99248.22;;;29.09;45.28
55546;BME280;44768;50.298;127.520;2022-07-22T10:48:46;99257.31;;;29.03;46.05
55546;BME280;44768;50.298;127.520;2022-07-22T10:53:55;99265.06;;;28.72;46.38
55546;BME280;44768;50.298;127.520;2022-07-22T10:59:14;99277.50;;;28.45;47.04
55546;BME280;44768;50.298;127.520;2022-07-22T11:04:24;99285.59;;;28.20;47.70
55546;BME280;44768;50.298;127.520;2022-07-22T11:09:34;99277.81;;;27.96;48.47
55546;BME280;44768;50.298;127.520;2022-07-22T11:14:35;99290.31;;;27.82;48.15
55546;BME280;44768;50.298;127.520;2022-07-22T11:19:38;99288.16;;;27.65;48.99
55546;BME280;44768;50.298;127.520;2022-07-22T11:24:41;99292.00;;;27.57;49.14
55546;BME280;44768;50.298;127.520;2022-07-22T11:29:43;99311.75;;;27.52;49.13
55546;BME280;44768;50.298;127.520;2022-07-22T11:34:48;99314.44;;;27.45;49.48
55546;BME280;44768;50.298;127.520;2022-07-22T11:39:51;99330.84;;;27.30;50.69
55546;BME280;44768;50.298;127.520;2022-07-22T11:45:00;99322.97;;;27.06;50.45
55546;BME280;44768;50.298;127.520;2022-07-22T11:50:04;99337.13;;;27.01;50.96
55546;BME280;44768;50.298;127.520;2022-07-22T11:55:15;99333.81;;;26.92;51.16
55546;BME280;44768;50.298;127.520;2022-07-22T12:00:17;99292.94;;;26.59;51.49
55546;BME280;44768;50.298;127.520;2022-07-22T12:05:19;99346.72;;;26.81;51.62
55546;BME280;44768;50.298;127.520;2022-07-22T12:10:20;99334.28;;;26.71;51.36
55546;BME280;44768;50.298;127.520;2022-07-22T12:15:22;99326.34;;;26.69;51.18
55546;BME280;44768;50.298;127.520;2022-07-22T12:20:24;99322.72;;;26.65;51.61
55546;BME280;44768;50.298;127.520;2022-07-22T12:25:26;99337.56;;;26.77;51.29
55546;BME280;44768;50.298;127.520;2022-07-22T12:30:28;99328.19;;;26.85;51.22
55546;BME280;44768;50.298;127.520;2022-07-22T12:35:30;99326.91;;;26.79;51.72
55546;BME280;44768;50.298;127.520;2022-07-22T12:40:32;99340.75;;;26.79;51.87
55546;BME280;44768;50.298;127.520;2022-07-22T12:45:36;99309.88;;;26.77;51.76
55546;BME280;44768;50.298;127.520;2022-07-22T12:50:57;99343.72;;;26.93;51.83
55546;BME280;44768;50.298;127.520;2022-07-22T12:55:59;99336.16;;;26.90;52.14
55546;BME280;44768;50.298;127.520;2022-07-22T13:01:02;99336.63;;;26.69;52.31
55546;BME280;44768;50.298;127.520;2022-07-22T13:06:05;99324.34;;;26.47;52.55
55546;BME280;44768;50.298;127.520;2022-07-22T13:11:07;99320.78;;;26.24;53.57
55546;BME280;44768;50.298;127.520;2022-07-22T13:16:09;99329.53;;;26.06;53.76
55546;BME280;44768;50.298;127.520;2022-07-22T13:21:31;99333.03;;;26.03;53.93
55546;BME280;44768;50.298;127.520;2022-07-22T13:26:37;99325.69;;;25.92;54.08
55546;BME280;44768;50.298;127.520;2022-07-22T13:31:39;99323.88;;;25.80;55.42
55546;BME280;44768;50.298;127.520;2022-07-22T13:36:41;99279.94;;;25.36;55.38
55546;BME280;44768;50.298;127.520;2022-07-22T13:41:42;99335.94;;;25.53;55.64
55546;BME280;44768;50.298;127.520;2022-07-22T13:46:44;99325.63;;;25.49;55.51
55546;BME280;44768;50.298;127.520;2022-07-22T13:51:46;99321.69;;;25.51;55.34
55546;BME280;44768;50.298;127.520;2022-07-22T13:56:48;99318.75;;;25.43;55.37
55546;BME280;44768;50.298;127.520;2022-07-22T14:01:49;99321.19;;;25.29;56.05
55546;BME280;44768;50.298;127.520;2022-07-22T14:06:51;99310.63;;;25.15;56.12
55546;BME280;44768;50.298;127.520;2022-07-22T14:11:53;99318.25;;;25.03;56.14
55546;BME280;44768;50.298;127.520;2022-07-22T14:16:55;99318.41;;;24.94;56.44
55546;BME280;44768;50.298;127.520;2022-07-22T14:21:57;99298.22;;;24.90;56.48
55546;BME280;44768;50.298;127.520;2022-07-22T14:26:59;99306.13;;;24.92;56.62
55546;BME280;44768;50.298;127.520;2022-07-22T14:32:00;99303.81;;;24.94;56.34
55546;BME280;44768;50.298;127.520;2022-07-22T14:37:02;99309.63;;;24.88;56.73
55546;BME280;44768;50.298;127.520;2022-07-22T14:42:04;99312.38;;;24.88;56.51
55546;BME280;44768;50.298;127.520;2022-07-22T14:47:05;99314.13;;;24.97;56.49
55546;BME280;44768;50.298;127.520;2022-07-22T14:52:07;99309.78;;;24.96;56.25
55546;BME280;44768;50.298;127.520;2022-07-22T14:57:09;99308.19;;;24.95;56.13
55546;BME280;44768;50.298;127.520;2022-07-22T15:02:10;99302.78;;;24.82;56.50
55546;BME280;44768;50.298;127.520;2022-07-22T15:07:12;99307.47;;;24.66;56.84
55546;BME280;44768;50.298;127.520;2022-07-22T15:12:13;99305.44;;;24.63;56.85
55546;BME280;44768;50.298;127.520;2022-07-22T15:17:15;99267.44;;;24.41;56.97
55546;BME280;44768;50.298;127.520;2022-07-22T15:22:17;99286.56;;;24.65;57.18
55546;BME280;44768;50.298;127.520;2022-07-22T15:27:19;99285.88;;;24.68;56.99
55546;BME280;44768;50.298;127.520;2022-07-22T15:32:21;99293.25;;;24.64;56.83
55546;BME280;44768;50.298;127.520;2022-07-22T15:37:22;99284.09;;;24.60;56.93
55546;BME280;44768;50.298;127.520;2022-07-22T15:42:25;99291.72;;;24.51;57.37
55546;BME280;44768;50.298;127.520;2022-07-22T15:47:26;99279.09;;;24.50;57.40
55546;BME280;44768;50.298;127.520;2022-07-22T15:52:28;99279.81;;;24.47;57.62
55546;BME280;44768;50.298;127.520;2022-07-22T15:57:30;99278.94;;;24.43;57.37
55546;BME280;44768;50.298;127.520;2022-07-22T16:02:50;99283.44;;;24.35;57.90
55546;BME280;44768;50.298;127.520;2022-07-22T16:07:51;99291.13;;;24.42;57.59
55546;BME280;44768;50.298;127.520;2022-07-22T16:12:53;99278.22;;;24.46;57.43
55546;BME280;44768;50.298;127.520;2022-07-22T16:17:54;99277.56;;;24.37;57.91
55546;BME280;44768;50.298;127.520;2022-07-22T16:22:56;99285.66;;;24.29;58.05
55546;BME280;44768;50.298;127.520;2022-07-22T16:27:58;99288.97;;;24.19;58.16
55546;BME280;44768;50.298;127.520;2022-07-22T16:33:00;99282.09;;;24.13;58.10
55546;BME280;44768;50.298;127.520;2022-07-22T16:38:01;99284.94;;;24.01;58.13
55546;BME280;44768;50.298;127.520;2022-07-22T16:43:03;99288.59;;;23.93;58.56
55546;BME280;44768;50.298;127.520;2022-07-22T16:48:04;99279.91;;;23.91;58.66
55546;BME280;44768;50.298;127.520;2022-07-22T16:53:06;99272.44;;;23.91;58.44
55546;BME280;44768;50.298;127.520;2022-07-22T16:58:07;99286.13;;;23.88;58.42
55546;BME280;44768;50.298;127.520;2022-07-22T17:03:09;99275.41;;;23.71;58.74
55546;BME280;44768;50.298;127.520;2022-07-22T17:08:11;99275.16;;;23.76;58.50
55546;BME280;44768;50.298;127.520;2022-07-22T17:13:12;99274.91;;;23.81;58.19
55546;BME280;44768;50.298;127.520;2022-07-22T17:18:14;99286.53;;;23.74;58.32
55546;BME280;44768;50.298;127.520;2022-07-22T17:23:16;99283.00;;;23.74;58.42
55546;BME280;44768;50.298;127.520;2022-07-22T17:28:19;99275.25;;;23.79;58.48
55546;BME280;44768;50.298;127.520;2022-07-22T17:33:21;99274.91;;;23.81;58.20
55546;BME280;44768;50.298;127.520;2022-07-22T17:38:23;99280.22;;;23.74;58.24
55546;BME280;44768;50.298;127.520;2022-07-22T17:43:24;99253.25;;;23.51;58.42
55546;BME280;44768;50.298;127.520;2022-07-22T17:48:26;99282.56;;;23.59;58.39
55546;BME280;44768;50.298;127.520;2022-07-22T17:53:31;99268.72;;;23.56;58.59
55546;BME280;44768;50.298;127.520;2022-07-22T17:58:33;99271.59;;;23.47;58.72
55546;BME280;44768;50.298;127.520;2022-07-22T18:03:35;99268.91;;;23.35;58.77
55546;BME280;44768;50.298;127.520;2022-07-22T18:08:36;99272.44;;;23.23;58.79
55546;BME280;44768;50.298;127.520;2022-07-22T18:13:38;99267.53;;;23.17;59.01
55546;BME280;44768;50.298;127.520;2022-07-22T18:18:39;99269.63;;;23.07;58.68
55546;BME280;44768;50.298;127.520;2022-07-22T18:23:42;99254.06;;;22.87;58.57
55546;BME280;44768;50.298;127.520;2022-07-22T18:28:44;99277.69;;;22.88;59.09
55546;BME280;44768;50.298;127.520;2022-07-22T18:33:45;99274.81;;;22.85;58.99
55546;BME280;44768;50.298;127.520;2022-07-22T18:38:47;99275.03;;;22.80;58.95
55546;BME280;44768;50.298;127.520;2022-07-22T18:43:48;99276.56;;;22.65;59.09
55546;BME280;44768;50.298;127.520;2022-07-22T18:48:50;99281.72;;;22.66;58.72
55546;BME280;44768;50.298;127.520;2022-07-22T18:53:51;99294.44;;;22.71;58.67
55546;BME280;44768;50.298;127.520;2022-07-22T18:58:53;99284.81;;;22.65;58.61
55546;BME280;44768;50.298;127.520;2022-07-22T19:03:55;99289.50;;;22.64;58.44
55546;BME280;44768;50.298;127.520;2022-07-22T19:08:57;99285.63;;;22.65;58.37
55546;BME280;44768;50.298;127.520;2022-07-22T19:13:58;99288.25;;;22.74;58.33
55546;BME280;44768;50.298;127.520;2022-07-22T19:19:00;99279.50;;;22.84;58.54
55546;BME280;44768;50.298;127.520;2022-07-22T19:24:02;99271.94;;;22.93;58.34
55546;BME280;44768;50.298;127.520;2022-07-22T19:29:04;99283.63;;;23.02;57.94
55546;BME280;44768;50.298;127.520;2022-07-22T19:34:07;99288.91;;;22.95;57.89
55546;BME280;44768;50.298;127.520;2022-07-22T19:39:08;99288.91;;;22.95;57.72
55546;BME280;44768;50.298;127.520;2022-07-22T19:44:10;99288.22;;;22.98;57.42
55546;BME280;44768;50.298;127.520;2022-07-22T19:49:11;99274.25;;;22.91;57.28
55546;BME280;44768;50.298;127.520;2022-07-22T19:54:13;99278.84;;;22.87;57.19
55546;BME280;44768;50.298;127.520;2022-07-22T19:59:14;99287.75;;;22.96;57.35
55546;BME280;44768;50.298;127.520;2022-07-22T20:04:16;99291.66;;;23.07;56.98
55546;BME280;44768;50.298;127.520;2022-07-22T20:09:18;99289.38;;;22.97;56.73
55546;BME280;44768;50.298;127.520;2022-07-22T20:14:19;99296.50;;;22.86;57.20
55546;BME280;44768;50.298;127.520;2022-07-22T20:19:20;99304.75;;;22.74;57.23
55546;BME280;44768;50.298;127.520;2022-07-22T20:24:22;99300.38;;;22.61;57.34
55546;BME280;44768;50.298;127.520;2022-07-22T20:29:24;99308.88;;;22.68;57.11
55546;BME280;44768;50.298;127.520;2022-07-22T20:34:27;99300.63;;;22.68;57.26
55546;BME280;44768;50.298;127.520;2022-07-22T20:39:30;99294.88;;;22.61;57.13
55546;BME280;44768;50.298;127.520;2022-07-22T20:44:31;99299.69;;;22.76;56.81
55546;BME280;44768;50.298;127.520;2022-07-22T20:49:33;99299.44;;;23.05;56.34
55546;BME280;44768;50.298;127.520;2022-07-22T20:54:34;99301.34;;;23.42;55.51
55546;BME280;44768;50.298;127.520;2022-07-22T20:59:36;99308.38;;;23.67;54.71
55546;BME280;44768;50.298;127.520;2022-07-22T21:04:37;99303.16;;;23.78;54.45
55546;BME280;44768;50.298;127.520;2022-07-22T21:09:39;99297.66;;;23.78;54.36
55546;BME280;44768;50.298;127.520;2022-07-22T21:14:41;99289.03;;;24.07;54.13
55546;BME280;44768;50.298;127.520;2022-07-22T21:19:42;99300.72;;;24.64;52.86
55546;BME280;44768;50.298;127.520;2022-07-22T21:24:43;99299.03;;;25.26;51.53
55546;BME280;44768;50.298;127.520;2022-07-22T21:29:45;99302.78;;;25.91;50.58
55546;BME280;44768;50.298;127.520;2022-07-22T21:34:48;99293.72;;;26.59;50.17
55546;BME280;44768;50.298;127.520;2022-07-22T21:39:50;99308.19;;;26.72;49.17
55546;BME280;44768;50.298;127.520;2022-07-22T21:44:51;99309.50;;;26.55;48.70
55546;BME280;44768;50.298;127.520;2022-07-22T21:49:53;99323.16;;;26.67;47.97
55546;BME280;44768;50.298;127.520;2022-07-22T21:54:54;99316.38;;;26.42;47.26
55546;BME280;44768;50.298;127.520;2022-07-22T21:59:56;99307.78;;;26.05;48.79
55546;BME280;44768;50.298;127.520;2022-07-22T22:04:59;99297.31;;;26.37;48.72
55546;BME280;44768;50.298;127.520;2022-07-22T22:10:01;99305.56;;;26.56;48.53
55546;BME280;44768;50.298;127.520;2022-07-22T22:15:04;99302.19;;;26.93;46.73
55546;BME280;44768;50.298;127.520;2022-07-22T22:20:06;99305.09;;;27.90;46.33
55546;BME280;44768;50.298;127.520;2022-07-22T22:25:08;99291.59;;;30.65;40.88
55546;BME280;44768;50.298;127.520;2022-07-22T22:30:13;99300.16;;;31.67;38.78
55546;BME280;44768;50.298;127.520;2022-07-22T22:35:15;99300.88;;;32.99;35.55
55546;BME280;44768;50.298;127.520;2022-07-22T22:40:17;99303.25;;;34.57;34.41
55546;BME280;44768;50.298;127.520;2022-07-22T22:45:19;99296.31;;;35.91;32.19
55546;BME280;44768;50.298;127.520;2022-07-22T22:50:20;99300.00;;;37.76;30.24
55546;BME280;44768;50.298;127.520;2022-07-22T22:55:22;99295.31;;;38.50;29.09
55546;BME280;44768;50.298;127.520;2022-07-22T23:00:23;99283.53;;;38.77;28.63
55546;BME280;44768;50.298;127.520;2022-07-22T23:05:25;99287.56;;;39.67;27.46
55546;BME280;44768;50.298;127.520;2022-07-22T23:10:28;99293.59;;;40.00;27.50
55546;BME280;44768;50.298;127.520;2022-07-22T23:15:29;99287.13;;;39.77;27.80
55546;BME280;44768;50.298;127.520;2022-07-22T23:20:31;99284.94;;;39.72;27.76
55546;BME280;44768;50.298;127.520;2022-07-22T23:25:51;99277.34;;;39.16;28.61
55546;BME280;44768;50.298;127.520;2022-07-22T23:30:53;99275.53;;;39.10;28.48
55546;BME280;44768;50.298;127.520;2022-07-22T23:35:56;99273.78;;;39.47;28.37
55546;BME280;44768;50.298;127.520;2022-07-22T23:40:57;99272.22;;;38.55;29.49
55546;BME280;44768;50.298;127.520;2022-07-22T23:46:03;99259.72;;;37.50;31.05
55546;BME280;44768;50.298;127.520;2022-07-22T23:51:05;99268.41;;;36.53;32.47
55546;BME280;44768;50.298;127.520;2022-07-22T23:56:07;99255.53;;;36.03;32.76
